• Join FlightAware (Why Join?)
  • Login
  • US Flag 
09:16AM EDT


 

Airport Tracker/Info


-or-


 

Live Flight TrackerFlight Track Log ✈ SKW5305 ✈ 28-Apr-2013 ✈ KSEA - KPDX

Flight Track Log - Related Links

Times and Time Zones

All times are in EDT time to prevent confusion due to time zone crossing. See the SKW5305 flight status page for this flight to view local times or setup timezone preferences in your user account.

Time Position Orientation Groundspeed Altitude Reporting Facility
EDT Latitude Longitude Course Direction KTS MPH feet Rate Location/Type
08:40PM 47.4431 -122.3061 180° South 131 151 1,100  Level Seattle Center
08:41PM 47.4236 -122.3169 201° Southwest 123 142 2,300 1,800 Climbing Seattle Center
08:42PM 47.3853 -122.3411 203° Southwest 148 170 4,100 1,680 Climbing Seattle Center
08:43PM 47.3450 -122.3667 203° Southwest 167 192 5,800 1,380 Climbing Seattle Center
08:44PM 47.0912 -122.3683 180° South  Level Estimated
08:44PM 47.2950 -122.3972 203° Southwest 180 207 7,000  Level Seattle Center
08:44PM 47.2533 -122.3936 177° South 199 229 7,000  Level Seattle Center
08:45PM 47.0015 -122.3823 180° South  Level Estimated
08:45PM 47.1961 -122.3764 168° South 212 244 7,000  Level Seattle Center
08:46PM 46.9408 -122.3917 180° South  Level Estimated
08:46PM 47.1411 -122.3567 166° South 207 238 8,500  Level Seattle Center
08:47PM 47.0881 -122.3389 167° South 199 229 10,200 1,500 Climbing Seattle Center
08:48PM 47.0306 -122.3231 169° South 214 246 11,600 1,320 Climbing Seattle Center
08:49PM 46.9675 -122.3086 171° South 233 268 12,900 1,320 Climbing Seattle Center
08:51PM 46.9025 -122.2892 168° South 240 276 14,400 1,020 Climbing Seattle Center
08:52PM 46.8208 -122.2689 170° South 256 295 15,000 240 Climbing Seattle Center
08:53PM 46.7469 -122.2636 177° South 267 307 15,000  Level Seattle Center
08:54PM 46.6756 -122.2744 186° South 259 298 15,000  Level Seattle Center
08:55PM 46.6072 -122.2967 193° South 253 291 15,000  Level Seattle Center
08:56PM 46.5403 -122.3217 194° South 251 289 15,000 -60 Level Seattle Center
08:57PM 46.4717 -122.3478 195° South 256 295 14,900  Descending Seattle Center
08:58PM 46.4025 -122.3631 189° South 252 290 15,000  Climbing Seattle Center
08:58PM 46.3433 -122.3781 190° South 258 297 15,000  Level Seattle Center
08:59PM 46.3314 -122.3764 174° South 259 298 15,000  Level Seattle Center
08:59PM 46.2989 -122.3839 189° South 261 300 15,000  Level Seattle Center
09:00PM 46.2603 -122.3858 182° South 261 300 15,000  Level Seattle Center
09:00PM 46.2242 -122.3903 185° South 263 303 15,000 -720 Level Seattle Center
09:01PM 46.1844 -122.3967 186° South 265 305 14,300 -1,200 Descending Seattle Center
09:01PM 46.1481 -122.4000 184° South 278 320 13,800 -1,140 Descending Seattle Center
09:02PM 46.1058 -122.4114 191° South 280 322 13,200 -1,140 Descending Seattle Center
09:02PM 46.0656 -122.4094 178° South 302 348 12,700 -1,200 Descending Seattle Center
09:03PM 45.9822 -122.4161 183° South 300 345 11,700 -1,260 Descending Seattle Center
09:04PM 45.9200 -122.4203 183° South 304 350 10,600 -1,620 Descending Seattle Center
09:04PM 45.8925 -122.4222 183° South 301 346 10,100 -1,620 Descending Seattle Center
09:05PM 45.8383 -122.4256 182° South 295 339 9,000 -1,380 Descending Seattle Center
09:05PM 45.8139 -122.4300 187° South 283 326 8,700 -1,140 Descending Seattle Center
09:06PM 45.7686 -122.4297 180° South 252 290 7,900 -1,380 Descending Seattle Center
09:06PM 45.7472 -122.4328 186° South 223 257 7,300 -1,620 Descending Seattle Center
09:07PM 45.7067 -122.4283 176° South 228 262 6,300 -1,380 Descending Seattle Center
09:07PM 45.6883 -122.4108 146° Southeast 227 261 5,900 -1,380 Descending Seattle Center
09:08PM 45.6500 -122.3958 165° South 226 260 4,900 -1,440 Descending Seattle Center
09:08PM 45.6297 -122.3886 166° South 214 246 4,500 -1,020 Descending Seattle Center
09:09PM 45.5922 -122.3719 163° South 218 251 3,900 -840 Descending Seattle Center
09:09PM 45.5756 -122.3678 170° South 193 222 3,700 -840 Descending Seattle Center
09:10PM 45.5442 -122.3567 166° South 192 221 3,100 -840 Descending Seattle Center
09:10PM 45.5300 -122.3681 209° Southwest 160 184 2,900 -720 Descending Seattle Center